TimeEDT,TemperatureF,Dew PointF,Humidity,Sea Level PressureIn,VisibilityMPH,Wind Direction,Wind SpeedMPH,Gust SpeedMPH,PrecipitationIn,Events,Conditions,WindDirDegrees,DateUTC
12:15 AM,54.0,51.3,91,29.91,3.0,West,4.6,-,N/A,,Heavy Drizzle,260,2013-07-29 04:15:00
12:35 AM,54.0,51.3,91,29.91,3.0,WSW,4.6,-,N/A,,Light Drizzle,250,2013-07-29 04:35:00
12:55 AM,54.1,51.4,91,29.92,10.0,West,3.5,-,N/A,,Overcast,270,2013-07-29 04:55:00
1:14 AM,54.0,51.1,90,29.92,10.0,Calm,Calm,-,N/A,,Overcast,0,2013-07-29 05:14:00
1:35 AM,54.0,51.3,91,29.92,10.0,Calm,Calm,-,N/A,,Overcast,0,2013-07-29 05:35:00
1:55 AM,54.0,51.3,91,29.92,10.0,Calm,Calm,-,N/A,,Overcast,0,2013-07-29 05:55:00
2:14 AM,54.0,51.3,91,29.92,10.0,WSW,3.5,-,N/A,,Overcast,250,2013-07-29 06:14:00
2:35 AM,54.0,51.3,91,29.92,10.0,West,3.5,-,N/A,,Overcast,260,2013-07-29 06:35:00
2:55 AM,54.0,51.3,91,29.93,10.0,WSW,3.5,-,N/A,,Overcast,250,2013-07-29 06:55:00
3:14 AM,54.0,51.3,91,29.93,10.0,West,3.5,-,N/A,,Overcast,260,2013-07-29 07:14:00
3:35 AM,54.0,51.1,90,29.94,10.0,West,3.5,-,N/A,,Overcast,270,2013-07-29 07:35:00
3:55 AM,55.4,52.5,90,29.94,3.0,Calm,Calm,-,N/A,,Overcast,0,2013-07-29 07:55:00
4:15 AM,54.0,51.3,91,29.95,3.0,Calm,Calm,-,N/A,,Overcast,0,2013-07-29 08:15:00
4:35 AM,54.0,51.4,91,29.95,1.5,WSW,3.5,-,N/A,,Overcast,250,2013-07-29 08:35:00
4:55 AM,56.5,53.8,91,29.95,1.5,Calm,Calm,-,N/A,,Overcast,0,2013-07-29 08:55:00
5:15 AM,56.5,53.8,91,29.95,1.0,West,3.5,-,N/A,Rain,Rain,260,2013-07-29 09:15:00
5:35 AM,55.0,52.3,91,29.96,1.5,West,4.6,-,N/A,,Overcast,280,2013-07-29 09:35:00
5:55 AM,54.0,51.1,90,29.97,10.0,WNW,5.8,-,N/A,,Overcast,290,2013-07-29 09:55:00
6:15 AM,54.0,51.1,90,29.98,10.0,West,4.6,-,N/A,,Overcast,280,2013-07-29 10:15:00
6:35 AM,55.4,52.5,90,29.99,4.0,WNW,5.8,-,N/A,,Overcast,290,2013-07-29 10:35:00
6:55 AM,56.1,53.2,90,30.00,5.0,WNW,4.6,-,N/A,,Light Drizzle,300,2013-07-29 10:55:00
7:15 AM,56.5,53.6,90,30.00,3.0,NW,4.6,-,N/A,,Light Drizzle,310,2013-07-29 11:15:00
7:35 AM,56.5,53.6,90,30.01,10.0,WNW,4.6,-,N/A,,Overcast,300,2013-07-29 11:35:00
7:55 AM,56.5,53.6,90,30.01,10.0,NW,5.8,-,N/A,,Mostly Cloudy,310,2013-07-29 11:55:00
8:15 AM,56.5,53.2,89,30.02,10.0,NW,3.5,-,N/A,,Overcast,310,2013-07-29 12:15:00
8:35 AM,56.5,52.9,88,30.03,10.0,WNW,8.1,-,N/A,,Overcast,300,2013-07-29 12:35:00
8:54 AM,56.5,52.5,87,30.04,10.0,NW,4.6,-,N/A,,Overcast,310,2013-07-29 12:54:00
9:15 AM,58.1,53.1,83,30.04,10.0,WNW,6.9,-,N/A,,Overcast,300,2013-07-29 13:15:00
9:35 AM,59.0,53.2,81,30.05,4.0,WNW,6.9,-,N/A,,Haze,300,2013-07-29 13:35:00
9:54 AM,59.0,53.1,81,30.05,10.0,WNW,6.9,-,N/A,,Mostly Cloudy,300,2013-07-29 13:54:00
10:15 AM,59.0,51.6,76,30.06,10.0,NW,6.9,-,N/A,,Mostly Cloudy,320,2013-07-29 14:15:00
10:35 AM,61.7,54.0,76,30.06,10.0,NW,8.1,-,N/A,,Overcast,320,2013-07-29 14:35:00
10:54 AM,61.7,52.7,72,30.07,10.0,WNW,9.2,-,N/A,,Overcast,290,2013-07-29 14:54:00
11:15 AM,60.4,52.5,75,30.08,10.0,WNW,6.9,-,N/A,,Overcast,300,2013-07-29 15:15:00
11:35 AM,61.7,52.7,72,30.08,10.0,WNW,8.1,-,N/A,,Overcast,300,2013-07-29 15:35:00
11:55 AM,63.9,51.3,64,30.08,10.0,WNW,6.9,-,N/A,,Mostly Cloudy,300,2013-07-29 15:55:00
12:15 PM,63.3,53.2,70,30.09,10.0,WNW,13.8,-,N/A,,Overcast,300,2013-07-29 16:15:00
12:35 PM,61.7,52.0,70,30.09,10.0,NW,8.1,16.1,N/A,,Overcast,310,2013-07-29 16:35:00
12:55 PM,61.7,52.2,71,30.10,10.0,WNW,10.4,-,N/A,,Overcast,300,2013-07-29 16:55:00
1:15 PM,61.7,52.0,70,30.10,10.0,NW,9.2,-,N/A,,Overcast,320,2013-07-29 17:15:00
1:35 PM,62.2,51.8,69,30.10,10.0,NW,10.4,-,N/A,,Overcast,310,2013-07-29 17:35:00
1:55 PM,62.4,51.6,68,30.11,10.0,WNW,4.6,-,N/A,,Overcast,300,2013-07-29 17:55:00
2:15 PM,62.6,52.2,69,30.11,10.0,West,9.2,-,N/A,,Overcast,280,2013-07-29 18:15:00
2:35 PM,63.9,52.5,67,30.11,10.0,West,11.5,16.1,N/A,,Overcast,280,2013-07-29 18:35:00
2:55 PM,64.4,52.9,66,30.12,10.0,WNW,13.8,-,N/A,,Overcast,290,2013-07-29 18:55:00
3:15 PM,64.8,52.0,63,30.12,10.0,NW,8.1,-,N/A,,Mostly Cloudy,310,2013-07-29 19:15:00
3:35 PM,65.8,51.8,60,30.12,10.0,West,6.9,17.3,N/A,,Mostly Cloudy,280,2013-07-29 19:35:00
3:55 PM,70.2,53.8,56,30.12,10.0,West,9.2,-,N/A,,Mostly Cloudy,270,2013-07-29 19:55:00
4:15 PM,69.3,52.7,56,30.12,10.0,WNW,6.9,-,N/A,,Mostly Cloudy,300,2013-07-29 20:15:00
4:35 PM,66.6,50.4,56,30.13,10.0,North,5.8,-,N/A,,Mostly Cloudy,350,2013-07-29 20:35:00
4:55 PM,71.6,53.1,52,30.13,10.0,WNW,9.2,19.6,N/A,,Mostly Cloudy,300,2013-07-29 20:55:00
5:15 PM,68.7,52.9,57,30.13,10.0,WNW,6.9,-,N/A,,Scattered Clouds,300,2013-07-29 21:15:00
5:35 PM,71.6,52.0,50,30.12,10.0,WNW,11.5,-,N/A,,Mostly Cloudy,290,2013-07-29 21:35:00
5:55 PM,71.6,52.7,51,30.13,10.0,North,5.8,-,N/A,,Overcast,360,2013-07-29 21:55:00
6:15 PM,69.1,50.9,52,30.13,10.0,NW,8.1,-,N/A,,Mostly Cloudy,310,2013-07-29 22:15:00
6:35 PM,70.9,50.5,48,30.13,10.0,WNW,10.4,-,N/A,,Scattered Clouds,300,2013-07-29 22:35:00
6:55 PM,68.9,48.9,49,30.14,10.0,WNW,6.9,-,N/A,,Scattered Clouds,290,2013-07-29 22:55:00
7:15 PM,67.6,48.7,51,30.14,10.0,NW,8.1,-,N/A,,Clear,310,2013-07-29 23:15:00
7:35 PM,65.5,48.9,55,30.15,10.0,NW,5.8,-,N/A,,Clear,310,2013-07-29 23:35:00
7:55 PM,66.6,50.0,55,30.15,10.0,NW,6.9,-,N/A,,Clear,310,2013-07-29 23:55:00
8:15 PM,65.3,50.0,58,30.16,10.0,NNW,5.8,-,N/A,,Clear,330,2013-07-30 00:15:00
8:35 PM,64.0,50.4,61,30.16,10.0,Calm,Calm,-,N/A,,Clear,0,2013-07-30 00:35:00
8:55 PM,62.8,50.9,65,30.16,10.0,Calm,Calm,-,N/A,,Clear,0,2013-07-30 00:55:00
9:15 PM,61.7,51.8,70,30.17,10.0,Calm,Calm,-,N/A,,Clear,0,2013-07-30 01:15:00
9:35 PM,59.0,53.1,81,30.17,10.0,Calm,Calm,-,N/A,,Clear,0,2013-07-30 01:35:00
9:55 PM,56.5,51.6,84,30.18,10.0,Calm,Calm,-,N/A,,Clear,0,2013-07-30 01:55:00
10:15 PM,54.0,50.2,87,30.18,10.0,Calm,Calm,-,N/A,,Clear,0,2013-07-30 02:15:00
10:35 PM,53.6,50.2,88,30.19,10.0,Calm,Calm,-,N/A,,Clear,0,2013-07-30 02:35:00
10:55 PM,51.6,48.6,89,30.19,10.0,WSW,3.5,-,N/A,,Clear,250,2013-07-30 02:55:00
11:14 PM,51.4,48.4,89,30.19,10.0,Calm,Calm,-,N/A,,Clear,0,2013-07-30 03:14:00
11:35 PM,51.4,48.2,89,30.19,10.0,Calm,Calm,-,N/A,,Clear,0,2013-07-30 03:35:00
11:55 PM,51.4,48.6,90,30.19,10.0,Calm,Calm,-,N/A,,Clear,0,2013-07-30 03:55:00